Time;durP1;ratioP1;P1;durP2;ratioP2;P2;SDS_P1;SDS_P2;PMS_P1;PMS_P2;Temp;Humidity;BMP_temperature;BMP_pressure;BME280_temperature;BME280_humidity;BME280_pressure;Samples;Min_cycle;Max_cycle;Signal;HPM_P1;HPM_P2
2022/07/31 00:00:30;;;;;;;5.95;2.03;;;17.50;99.80;;;;;;5007242;28;20042;-38
2022/07/31 00:02:56;;;;;;;11.57;2.95;;;17.50;99.70;;;;;;5005817;28;20049;-39
2022/07/31 00:05:23;;;;;;;6.75;2.10;;;17.50;99.70;;;;;;5006628;28;20049;-38
2022/07/31 00:07:49;;;;;;;5.40;2.15;;;17.40;99.60;;;;;;5006690;28;20038;-38
2022/07/31 00:10:15;;;;;;;5.63;1.95;;;17.50;99.70;;;;;;5006536;28;20522;-38
2022/07/31 00:12:41;;;;;;;4.07;1.83;;;17.60;99.60;;;;;;5006778;28;20068;-38
2022/07/31 00:15:11;;;;;;;2.72;1.73;;;17.50;99.60;;;;;;5006871;28;20559;-38
2022/07/31 00:17:38;;;;;;;7.80;2.38;;;16.10;99.30;;;;;;5007018;28;20076;-38
2022/07/31 00:20:04;;;;;;;6.97;1.80;;;17.40;99.50;;;;;;5006770;28;20054;-38
2022/07/31 00:22:30;;;;;;;5.90;1.98;;;17.50;99.60;;;;;;5006296;28;20065;-38
2022/07/31 00:24:56;;;;;;;8.20;2.20;;;17.40;99.50;;;;;;5006525;28;20467;-38
2022/07/31 00:27:22;;;;;;;3.70;1.52;;;17.50;99.50;;;;;;5006610;28;20053;-38
2022/07/31 00:29:48;;;;;;;6.63;1.77;;;17.70;99.60;;;;;;5006381;28;20042;-38
2022/07/31 00:32:14;;;;;;;10.45;2.92;;;17.50;99.50;;;;;;5006216;28;20049;-38
2022/07/31 00:34:41;;;;;;;4.72;2.10;;;17.50;99.50;;;;;;5006310;28;20042;-38
2022/07/31 00:37:07;;;;;;;4.15;2.20;;;17.50;99.50;;;;;;5006944;28;20050;-38
2022/07/31 00:39:33;;;;;;;8.23;2.65;;;17.50;99.60;;;;;;5006289;28;20042;-38
2022/07/31 00:41:59;;;;;;;5.78;2.15;;;17.50;99.60;;;;;;5006792;28;20096;-38
2022/07/31 00:44:24;;;;;;;5.78;2.03;;;17.50;99.50;;;;;;5007951;28;20057;-38
2022/07/31 00:46:50;;;;;;;3.53;1.88;;;17.40;99.50;;;;;;5009178;28;20053;-38
2022/07/31 00:49:16;;;;;;;6.03;2.17;;;17.40;99.50;;;;;;5010033;28;20037;-38
2022/07/31 00:51:42;;;;;;;5.93;1.83;;;17.40;99.50;;;;;;5010224;28;20060;-38
2022/07/31 00:54:09;;;;;;;3.95;2.05;;;17.40;99.50;;;;;;5010370;28;20048;-38
2022/07/31 00:56:35;;;;;;;4.97;1.98;;;17.40;99.30;;;;;;5010212;28;20033;-38
2022/07/31 00:59:01;;;;;;;5.07;2.05;;;17.40;99.20;;;;;;5009944;28;20057;-38
2022/07/31 01:01:27;;;;;;;3.90;2.10;;;17.30;99.30;;;;;;5010012;28;20530;-38
2022/07/31 01:03:53;;;;;;;5.30;2.63;;;17.40;99.20;;;;;;5010184;28;20044;-38
2022/07/31 01:06:19;;;;;;;5.05;2.20;;;17.30;99.20;;;;;;5010036;28;20045;-38
2022/07/31 01:08:44;;;;;;;5.97;1.83;;;17.30;99.10;;;;;;5009821;28;20048;-38
2022/07/31 01:11:40;;;;;;;7.93;1.77;;;17.20;99.00;;;;;;5009273;28;20133;-38
2022/07/31 01:14:07;;;;;;;3.83;2.15;;;17.20;98.90;;;;;;5008932;28;20132;-38
2022/07/31 01:16:39;;;;;;;5.55;1.90;;;17.10;99.00;;;;;;5009460;28;20491;-38
2022/07/31 01:19:17;;;;;;;6.15;2.20;;;17.10;99.20;;;;;;5009609;28;20460;-38
2022/07/31 01:21:54;;;;;;;3.83;1.90;;;17.00;99.40;;;;;;5009497;28;20042;-38
2022/07/31 01:25:04;;;;;;;8.43;2.78;;;16.80;99.50;;;;;;5009541;28;20480;-38
2022/07/31 01:28:02;;;;;;;4.53;1.88;;;16.80;99.80;;;;;;5009159;28;20223;-38
2022/07/31 01:30:34;;;;;;;6.68;2.47;;;16.70;99.80;;;;;;5009475;28;20545;-38
2022/07/31 01:33:07;;;;;;;3.30;2.00;;;16.60;99.90;;;;;;5009791;28;20038;-38
2022/07/31 01:35:42;;;;;;;3.05;2.00;;;16.60;99.90;;;;;;5009707;28;20392;-38
2022/07/31 01:38:16;;;;;;;4.38;2.47;;;16.50;99.90;;;;;;5009428;28;20077;-38
2022/07/31 01:40:46;;;;;;;4.07;2.28;;;16.40;99.90;;;;;;5009647;28;20042;-38
2022/07/31 01:43:20;;;;;;;4.53;2.63;;;16.30;99.90;;;;;;5009926;28;20046;-38
2022/07/31 01:45:52;;;;;;;6.47;2.30;;;16.30;99.90;;;;;;5009860;28;20064;-38
2022/07/31 01:48:19;;;;;;;5.03;2.58;;;16.30;99.90;;;;;;5009684;28;20053;-38
2022/07/31 01:50:47;;;;;;;5.38;2.42;;;16.20;99.90;;;;;;5009588;28;20049;-38
2022/07/31 01:53:17;;;;;;;4.28;2.25;;;16.20;99.90;;;;;;5009779;28;20054;-38
2022/07/31 01:55:43;;;;;;;6.95;2.47;;;16.20;99.90;;;;;;5007839;28;20069;-38
2022/07/31 01:58:11;;;;;;;3.15;1.85;;;16.10;99.90;;;;;;5009390;28;20041;-38
2022/07/31 02:00:37;;;;;;;5.32;1.83;;;16.10;99.90;;;;;;5008977;28;20042;-38
2022/07/31 02:03:05;;;;;;;4.72;1.77;;;16.10;99.90;;;;;;5009608;28;20052;-38
2022/07/31 02:05:33;;;;;;;3.13;1.83;;;16.10;99.90;;;;;;5008998;28;20125;-38
2022/07/31 02:08:01;;;;;;;6.25;2.40;;;16.20;99.90;;;;;;5008997;28;20041;-39
2022/07/31 02:10:28;;;;;;;2.97;1.83;;;16.20;99.90;;;;;;5009077;28;20076;-38
2022/07/31 02:12:55;;;;;;;4.50;1.80;;;16.30;99.90;;;;;;5008925;28;20053;-38
2022/07/31 02:15:21;;;;;;;4.90;2.00;;;16.30;99.90;;;;;;5008735;28;20054;-38
2022/07/31 02:17:49;;;;;;;2.78;1.55;;;16.40;99.90;;;;;;5008627;28;20049;-38
2022/07/31 02:20:15;;;;;;;5.85;1.85;;;16.50;99.90;;;;;;5008935;28;20464;-38
2022/07/31 02:22:41;;;;;;;6.70;1.55;;;16.50;99.90;;;;;;5008562;28;20101;-38
2022/07/31 02:25:07;;;;;;;3.75;1.70;;;16.50;99.90;;;;;;5008902;28;20125;-38
2022/07/31 02:27:35;;;;;;;5.88;2.10;;;16.60;99.90;;;;;;5009068;28;20395;-38
2022/07/31 02:30:02;;;;;;;4.82;1.80;;;16.60;99.90;;;;;;5009034;28;20046;-38
2022/07/31 02:32:30;;;;;;;4.15;2.40;;;16.60;99.90;;;;;;5009011;28;20041;-38
2022/07/31 02:34:59;;;;;;;3.45;1.35;;;16.70;99.90;;;;;;5008580;28;20069;-38
2022/07/31 02:37:25;;;;;;;4.00;2.22;;;16.60;99.90;;;;;;5008787;28;20046;-38
2022/07/31 02:39:53;;;;;;;3.40;1.63;;;16.70;99.90;;;;;;5008349;28;20076;-38
2022/07/31 02:42:21;;;;;;;2.92;1.70;;;16.70;99.90;;;;;;5008381;28;20797;-39
2022/07/31 02:44:48;;;;;;;4.90;1.70;;;16.70;99.90;;;;;;5008230;28;20072;-38
2022/07/31 02:47:14;;;;;;;5.95;1.88;;;16.70;99.90;;;;;;5008564;28;20050;-38
2022/07/31 02:49:41;;;;;;;4.35;1.58;;;16.70;99.90;;;;;;5007747;28;20050;-38
2022/07/31 02:52:08;;;;;;;3.55;1.65;;;16.70;99.90;;;;;;5008302;28;20411;-39
2022/07/31 02:54:38;;;;;;;4.35;1.90;;;16.80;99.90;;;;;;5007599;28;20073;-38
2022/07/31 02:57:04;;;;;;;3.95;1.65;;;16.80;99.90;;;;;;5008128;28;20030;-38
2022/07/31 02:59:30;;;;;;;3.28;1.75;;;17.00;99.90;;;;;;5008354;28;20042;-38
2022/07/31 03:01:57;;;;;;;3.80;2.13;;;16.70;99.90;;;;;;5008290;28;20046;-38
2022/07/31 03:04:23;;;;;;;6.63;1.95;;;16.10;99.90;;;;;;5008516;28;20125;-38
2022/07/31 03:06:49;;;;;;;3.60;1.70;;;16.70;99.90;;;;;;5008029;28;20030;-38
2022/07/31 03:09:15;;;;;;;3.88;1.75;;;16.60;99.90;;;;;;5009136;28;20125;-38
2022/07/31 03:11:41;;;;;;;5.72;1.88;;;16.60;99.90;;;;;;5008249;28;20298;-38
2022/07/31 03:14:10;;;;;;;4.93;2.35;;;16.60;99.90;;;;;;5008545;28;20084;-38
2022/07/31 03:16:37;;;;;;;3.85;2.70;;;16.60;99.90;;;;;;5007958;28;20072;-38
2022/07/31 03:19:04;;;;;;;7.38;2.30;;;16.60;99.90;;;;;;5008181;28;20053;-38
2022/07/31 03:21:30;;;;;;;4.43;1.55;;;16.60;99.90;;;;;;5007895;28;20065;-38
2022/07/31 03:23:57;;;;;;;4.75;2.13;;;16.60;99.90;;;;;;5007651;28;20092;-38
2022/07/31 03:26:24;;;;;;;6.10;1.83;;;16.60;99.90;;;;;;5006589;28;20673;-38
2022/07/31 03:28:50;;;;;;;4.35;2.33;;;16.50;99.90;;;;;;5007981;28;20053;-38
2022/07/31 03:31:15;;;;;;;6.15;2.55;;;16.50;99.90;;;;;;5008224;28;20654;-38
2022/07/31 03:33:41;;;;;;;3.50;1.80;;;16.50;99.90;;;;;;5008200;28;20080;-38
2022/07/31 03:36:08;;;;;;;5.03;2.08;;;16.50;99.90;;;;;;5006669;28;20054;-38
2022/07/31 03:38:34;;;;;;;3.35;2.20;;;16.50;99.90;;;;;;5006198;28;20373;-38
2022/07/31 03:41:00;;;;;;;4.53;2.25;;;16.50;99.90;;;;;;5007375;28;20485;-38
2022/07/31 03:43:29;;;;;;;3.22;1.92;;;16.50;99.90;;;;;;5007409;28;20506;-38
2022/07/31 03:45:58;;;;;;;4.53;2.00;;;16.50;99.90;;;;;;5007176;28;20080;-39
2022/07/31 03:48:24;;;;;;;4.80;2.20;;;16.40;99.90;;;;;;5007218;28;20096;-38
2022/07/31 03:50:50;;;;;;;4.78;2.00;;;16.50;99.90;;;;;;5006449;28;20504;-38
2022/07/31 03:53:17;;;;;;;7.50;2.25;;;16.50;99.90;;;;;;5007095;28;20120;-38
2022/07/31 03:55:44;;;;;;;4.88;2.13;;;16.50;99.90;;;;;;5006757;28;20045;-38
2022/07/31 03:58:11;;;;;;;6.57;2.22;;;16.50;99.90;;;;;;5006306;28;20050;-38
2022/07/31 04:00:37;;;;;;;3.85;2.17;;;16.50;99.90;;;;;;5007102;28;20570;-38
2022/07/31 04:03:08;;;;;;;2.88;2.10;;;16.50;99.90;;;;;;5006874;28;20125;-39
2022/07/31 04:05:34;;;;;;;3.37;2.27;;;16.50;99.90;;;;;;5006764;28;20578;-38
2022/07/31 04:08:00;;;;;;;3.42;1.98;;;16.50;99.90;;;;;;5007209;28;20388;-38
2022/07/31 04:10:26;;;;;;;4.50;2.15;;;16.60;99.90;;;;;;5007023;28;20046;-38
2022/07/31 04:12:52;;;;;;;4.05;2.50;;;16.50;99.90;;;;;;5006495;28;20136;-38
2022/07/31 04:15:18;;;;;;;6.00;2.45;;;16.60;99.90;;;;;;5006906;28;20097;-38
2022/07/31 04:17:43;;;;;;;5.68;2.63;;;16.60;99.90;;;;;;5006780;28;20109;-39
2022/07/31 04:20:10;;;;;;;6.13;2.65;;;16.60;99.90;;;;;;5005965;28;20048;-38
2022/07/31 04:22:36;;;;;;;6.53;2.58;;;16.60;99.90;;;;;;5005409;28;20084;-38
2022/07/31 04:25:06;;;;;;;4.57;2.53;;;16.50;99.90;;;;;;5006132;28;20507;-38
2022/07/31 04:27:33;;;;;;;6.65;2.72;;;16.60;99.90;;;;;;5006927;28;20084;-38
2022/07/31 04:29:59;;;;;;;4.53;2.72;;;16.60;99.90;;;;;;5004993;28;20049;-38
2022/07/31 04:32:25;;;;;;;3.95;2.70;;;16.60;99.90;;;;;;5006539;28;20046;-38
2022/07/31 04:34:50;;;;;;;5.07;2.80;;;16.70;99.90;;;;;;5006102;28;20065;-38
2022/07/31 04:37:16;;;;;;;9.05;2.50;;;16.90;99.90;;;;;;5006504;28;20452;-38
2022/07/31 04:39:42;;;;;;;4.43;3.00;;;16.80;99.90;;;;;;5006144;28;20547;-38
2022/07/31 04:42:08;;;;;;;5.22;2.60;;;16.90;99.90;;;;;;5005920;28;20077;-38
2022/07/31 04:44:34;;;;;;;5.30;2.38;;;17.00;99.90;;;;;;5006445;28;20131;-38
2022/07/31 04:47:04;;;;;;;7.70;2.90;;;17.10;99.90;;;;;;5006513;28;20052;-38
2022/07/31 04:49:31;;;;;;;3.65;2.25;;;17.20;99.90;;;;;;5006542;28;20041;-38
2022/07/31 04:51:58;;;;;;;5.45;2.47;;;17.30;99.90;;;;;;5006467;28;20076;-38
2022/07/31 04:54:24;;;;;;;6.03;2.80;;;17.40;99.90;;;;;;5006693;28;20045;-38
2022/07/31 04:56:50;;;;;;;6.22;3.10;;;17.50;99.90;;;;;;5006677;28;20042;-38
2022/07/31 04:59:19;;;;;;;4.93;2.78;;;17.60;99.90;;;;;;5006965;28;20045;-38
2022/07/31 05:01:45;;;;;;;7.97;2.42;;;17.90;99.90;;;;;;5006739;28;20033;-38
2022/07/31 05:04:11;;;;;;;5.18;2.50;;;17.80;99.90;;;;;;5006439;28;20042;-38
2022/07/31 05:06:39;;;;;;;5.55;1.95;;;17.80;99.90;;;;;;5006404;28;20050;-38
2022/07/31 05:09:08;;;;;;;6.07;2.55;;;17.90;99.80;;;;;;5006430;28;20050;-38
2022/07/31 05:11:35;;;;;;;4.82;2.08;;;18.00;99.60;;;;;;5006262;28;20543;-38
2022/07/31 05:14:04;;;;;;;4.50;2.75;;;18.00;99.70;;;;;;5006158;28;20054;-38
2022/07/31 05:16:31;;;;;;;6.85;2.05;;;18.10;99.40;;;;;;5006558;28;20104;-38
2022/07/31 05:18:57;;;;;;;7.78;2.53;;;18.10;99.70;;;;;;5006132;28;20764;-38
2022/07/31 05:21:25;;;;;;;3.85;2.40;;;18.20;99.30;;;;;;5006460;28;20038;-38
2022/07/31 05:23:52;;;;;;;5.38;2.50;;;18.20;99.30;;;;;;5005827;28;20096;-38
2022/07/31 05:26:19;;;;;;;4.05;2.35;;;18.30;99.10;;;;;;5006285;28;20051;-38
2022/07/31 05:28:45;;;;;;;4.47;2.25;;;18.40;98.90;;;;;;5006367;28;20088;-38
2022/07/31 05:31:11;;;;;;;5.07;2.53;;;18.40;98.80;;;;;;5008660;28;20052;-38
2022/07/31 05:33:38;;;;;;;3.45;2.65;;;18.50;98.90;;;;;;5009987;28;20042;-38
2022/07/31 05:36:04;;;;;;;4.90;2.72;;;18.60;98.90;;;;;;5009318;28;20042;-38
2022/07/31 05:38:30;;;;;;;3.85;2.10;;;18.60;98.70;;;;;;5009561;28;20550;-38
2022/07/31 05:40:56;;;;;;;5.05;2.60;;;18.70;98.60;;;;;;5009444;28;20046;-38
2022/07/31 05:43:21;;;;;;;5.43;2.80;;;18.80;98.60;;;;;;5009397;28;20042;-38
2022/07/31 05:45:47;;;;;;;7.30;2.75;;;18.90;98.40;;;;;;5009199;28;20111;-38
2022/07/31 05:48:13;;;;;;;4.10;2.10;;;18.90;98.20;;;;;;5008955;28;20078;-38
2022/07/31 05:50:44;;;;;;;5.05;1.92;;;18.90;98.00;;;;;;5009491;28;20053;-38
2022/07/31 05:53:14;;;;;;;8.55;2.42;;;19.00;98.00;;;;;;5009305;28;20418;-38
2022/07/31 05:55:44;;;;;;;5.05;2.60;;;18.90;98.00;;;;;;5008935;28;20570;-38
2022/07/31 05:58:10;;;;;;;4.25;2.60;;;18.90;97.70;;;;;;5009087;28;20042;-38
2022/07/31 06:00:37;;;;;;;3.25;2.30;;;18.80;97.80;;;;;;5009739;28;20399;-38
2022/07/31 06:03:04;;;;;;;6.32;2.22;;;18.80;98.00;;;;;;5009175;28;20049;-38
2022/07/31 06:05:30;;;;;;;4.93;2.30;;;18.80;98.20;;;;;;5009377;28;20049;-38
2022/07/31 06:07:57;;;;;;;2.65;2.30;;;18.80;98.20;;;;;;5008941;28;20108;-38
2022/07/31 06:10:23;;;;;;;3.28;2.17;;;18.80;98.20;;;;;;5007529;28;20045;-38
2022/07/31 06:12:49;;;;;;;3.60;2.30;;;18.80;98.10;;;;;;5007555;28;20070;-38
2022/07/31 06:15:15;;;;;;;3.38;1.90;;;18.90;98.30;;;;;;5008703;28;20052;-38
2022/07/31 06:17:41;;;;;;;2.55;1.77;;;19.00;98.40;;;;;;5008935;28;20694;-38
2022/07/31 06:20:08;;;;;;;5.63;2.45;;;19.00;98.20;;;;;;5008850;28;20122;-38
2022/07/31 06:22:34;;;;;;;3.63;1.75;;;19.20;97.90;;;;;;5009251;28;20041;-38
2022/07/31 06:25:00;;;;;;;5.50;2.05;;;19.30;97.60;;;;;;5008432;28;20049;-38
2022/07/31 06:27:26;;;;;;;4.40;2.22;;;19.40;97.40;;;;;;5008796;28;20045;-38
2022/07/31 06:29:52;;;;;;;3.97;2.10;;;19.50;97.00;;;;;;5008514;28;20413;-38
2022/07/31 06:32:19;;;;;;;4.93;2.50;;;19.60;97.00;;;;;;5008139;28;20502;-38
2022/07/31 06:34:44;;;;;;;3.58;1.80;;;19.60;97.00;;;;;;5008503;28;20124;-38
2022/07/31 06:37:10;;;;;;;4.18;2.20;;;19.70;96.90;;;;;;5008205;28;20045;-38
2022/07/31 06:39:36;;;;;;;5.30;2.10;;;19.80;96.90;;;;;;5008351;28;20121;-38
2022/07/31 06:42:02;;;;;;;4.55;1.98;;;19.90;96.70;;;;;;5007053;28;20488;-38
2022/07/31 06:44:29;;;;;;;4.22;2.10;;;19.90;96.70;;;;;;5008237;28;20087;-38
2022/07/31 06:46:55;;;;;;;2.50;1.65;;;20.00;97.00;;;;;;5008261;28;20488;-38
2022/07/31 06:49:20;;;;;;;4.47;1.92;;;20.10;97.30;;;;;;5008118;28;20049;-38
2022/07/31 06:51:46;;;;;;;3.47;2.03;;;20.10;97.10;;;;;;5008238;28;20042;-38
2022/07/31 06:54:11;;;;;;;5.43;2.10;;;20.30;96.90;;;;;;5007963;28;20061;-38
2022/07/31 06:56:38;;;;;;;4.82;1.52;;;20.40;96.70;;;;;;5007986;28;20479;-38
2022/07/31 06:59:05;;;;;;;5.97;2.05;;;20.50;96.30;;;;;;5007838;28;20042;-38
2022/07/31 07:01:31;;;;;;;2.97;1.88;;;20.60;96.40;;;;;;5008490;28;20069;-38
2022/07/31 07:03:56;;;;;;;4.45;1.80;;;20.60;96.20;;;;;;5008227;28;20076;-38
2022/07/31 07:06:22;;;;;;;4.55;1.98;;;20.70;95.90;;;;;;5007993;28;20048;-38
2022/07/31 07:08:49;;;;;;;6.93;2.50;;;20.70;95.30;;;;;;5007958;28;20396;-38
2022/07/31 07:11:14;;;;;;;3.80;1.63;;;20.70;94.90;;;;;;5008093;28;20092;-38
2022/07/31 07:13:40;;;;;;;4.85;1.85;;;20.70;95.30;;;;;;5007411;28;20089;-38
2022/07/31 07:16:06;;;;;;;4.25;1.75;;;20.80;95.20;;;;;;5007265;28;20058;-38
2022/07/31 07:18:32;;;;;;;3.33;1.98;;;20.80;94.90;;;;;;5007698;28;20048;-38
2022/07/31 07:20:57;;;;;;;2.95;1.67;;;20.80;94.00;;;;;;5007182;28;20038;-38
2022/07/31 07:23:23;;;;;;;2.88;1.70;;;20.90;93.80;;;;;;5006815;28;20092;-38
2022/07/31 07:25:49;;;;;;;6.80;1.83;;;20.80;93.40;;;;;;5007364;28;20053;-38
2022/07/31 07:28:15;;;;;;;4.35;2.00;;;20.80;93.10;;;;;;5007198;28;20041;-38
2022/07/31 07:30:41;;;;;;;2.92;1.80;;;20.80;93.00;;;;;;5007432;28;20046;-38
2022/07/31 07:33:06;;;;;;;4.63;1.95;;;20.80;93.10;;;;;;5007410;28;20045;-38
2022/07/31 07:35:32;;;;;;;4.53;1.83;;;20.80;93.20;;;;;;5007365;28;20046;-38
2022/07/31 07:37:58;;;;;;;3.17;1.85;;;20.80;93.10;;;;;;5007523;28;20468;-38
2022/07/31 07:40:25;;;;;;;3.85;2.40;;;20.70;93.00;;;;;;5007114;28;20048;-38
2022/07/31 07:42:51;;;;;;;4.30;1.90;;;20.70;93.10;;;;;;5007223;28;20034;-38
2022/07/31 07:45:17;;;;;;;4.47;1.95;;;20.70;92.80;;;;;;5007570;28;20045;-38
2022/07/31 07:47:42;;;;;;;3.22;2.15;;;20.70;92.50;;;;;;5007177;28;20045;-38
2022/07/31 07:50:09;;;;;;;3.38;2.28;;;20.70;92.80;;;;;;5007343;28;20049;-38
2022/07/31 07:52:36;;;;;;;7.00;2.50;;;20.80;92.80;;;;;;5007114;28;20140;-38
2022/07/31 07:55:04;;;;;;;4.28;2.13;;;20.80;92.90;;;;;;5007302;28;20963;-38
2022/07/31 07:57:30;;;;;;;5.70;2.38;;;20.90;93.00;;;;;;5007427;28;20073;-38
2022/07/31 08:00:00;;;;;;;5.78;2.53;;;21.10;92.80;;;;;;5007211;28;20034;-38
2022/07/31 08:02:25;;;;;;;4.70;2.45;;;21.30;92.50;;;;;;5007073;28;20038;-38
2022/07/31 08:04:51;;;;;;;5.70;2.80;;;21.40;92.80;;;;;;5007116;28;20477;-38
2022/07/31 08:07:25;;;;;;;4.82;2.75;;;21.70;92.60;;;;;;5006980;28;20088;-38
2022/07/31 08:09:51;;;;;;;4.13;2.47;;;21.90;92.30;;;;;;5007064;28;20056;-37
2022/07/31 08:12:16;;;;;;;3.70;2.45;;;22.40;92.30;;;;;;5006050;28;20404;-37
2022/07/31 08:14:42;;;;;;;5.22;2.67;;;23.10;91.20;;;;;;5007085;28;20549;-37
2022/07/31 08:17:11;;;;;;;5.45;3.17;;;23.80;91.00;;;;;;5005358;28;20146;-37
2022/07/31 08:19:37;;;;;;;5.32;2.80;;;24.50;87.40;;;;;;4975956;28;20072;-38
2022/07/31 08:22:02;;;;;;;4.05;2.85;;;25.20;84.30;;;;;;5003797;28;20472;-38
2022/07/31 08:24:28;;;;;;;3.95;2.75;;;25.90;81.90;;;;;;5003436;28;20049;-38
2022/07/31 08:27:39;;;;;;;3.10;2.40;;;26.20;79.90;;;;;;5003882;28;20156;-38
2022/07/31 08:29:39;;;;;;;4.82;2.60;;;26.40;77.90;;;;;;4996027;28;20353;-38
2022/07/31 08:32:05;;;;;;;5.43;2.50;;;26.20;76.40;;;;;;5003185;28;20096;-41
2022/07/31 08:34:31;;;;;;;3.67;2.50;;;26.10;75.90;;;;;;5002709;28;20128;-41
2022/07/31 08:36:57;;;;;;;7.00;3.20;;;26.00;76.30;;;;;;5003875;28;20046;-42
2022/07/31 08:39:23;;;;;;;2.60;1.58;;;25.90;75.70;;;;;;5003868;28;20038;-41
2022/07/31 08:41:48;;;;;;;5.35;2.50;;;26.10;75.80;;;;;;5003827;28;20559;-41
2022/07/31 08:44:14;;;;;;;2.90;1.58;;;26.30;77.30;;;;;;5003028;28;20444;-42
2022/07/31 08:46:40;;;;;;;4.32;2.63;;;26.40;77.00;;;;;;5003444;28;20049;-41
2022/07/31 08:49:08;;;;;;;4.40;3.10;;;26.30;75.00;;;;;;5003563;28;20121;-43
2022/07/31 08:51:38;;;;;;;6.50;2.95;;;26.20;76.20;;;;;;5002129;28;20069;-41
2022/07/31 08:54:06;;;;;;;5.22;3.00;;;26.00;76.20;;;;;;5002906;28;20438;-41
2022/07/31 08:56:36;;;;;;;4.40;2.90;;;25.80;77.00;;;;;;5003051;28;20052;-35
2022/07/31 08:59:04;;;;;;;4.43;2.60;;;25.60;78.30;;;;;;4994794;28;20050;-35
2022/07/31 09:01:33;;;;;;;5.50;3.22;;;25.40;79.00;;;;;;5012073;28;20029;-41
2022/07/31 09:03:59;;;;;;;4.35;3.10;;;25.30;79.30;;;;;;5001243;28;20067;-45
2022/07/31 09:06:26;;;;;;;4.38;2.97;;;25.10;80.60;;;;;;5004451;28;20084;-47
2022/07/31 09:08:54;;;;;;;6.88;2.58;;;25.00;81.30;;;;;;5005403;28;20475;-42
2022/07/31 09:11:21;;;;;;;8.52;2.88;;;24.80;81.30;;;;;;5005455;28;20045;-42
2022/07/31 09:14:00;;;;;;;6.88;2.85;;;24.60;82.10;;;;;;5004464;28;20396;-42
2022/07/31 09:16:26;;;;;;;6.68;3.05;;;24.40;84.50;;;;;;5004963;28;20045;-41
2022/07/31 09:19:00;;;;;;;4.10;3.25;;;24.20;84.60;;;;;;4983780;28;20421;-43
2022/07/31 09:21:37;;;;;;;10.50;3.22;;;24.00;86.10;;;;;;5003264;28;20049;-38
2022/07/31 09:24:02;;;;;;;8.40;4.00;;;23.80;87.90;;;;;;5005316;28;20049;-43
2022/07/31 09:26:33;;;;;;;8.65;5.10;;;23.60;89.40;;;;;;5005189;28;20400;-40
2022/07/31 09:29:00;;;;;;;6.47;4.00;;;23.40;90.80;;;;;;5005756;28;20137;-41
2022/07/31 09:31:36;;;;;;;7.60;4.72;;;23.30;91.40;;;;;;5003386;28;20050;-40
2022/07/31 09:34:05;;;;;;;6.40;4.25;;;23.10;93.10;;;;;;5005411;28;20116;-40
2022/07/31 09:36:31;;;;;;;7.00;5.85;;;22.90;94.00;;;;;;5004836;28;20054;-43
2022/07/31 09:38:58;;;;;;;8.23;6.43;;;21.30;95.00;;;;;;5005044;28;20451;-40
2022/07/31 09:41:24;;;;;;;7.85;7.07;;;22.70;96.10;;;;;;5005172;28;20142;-41
2022/07/31 09:44:01;;;;;;;7.28;6.03;;;22.60;96.60;;;;;;5004720;28;20111;-38
2022/07/31 09:46:46;;;;;;;7.72;6.93;;;22.60;97.60;;;;;;5004857;28;20034;-42
2022/07/31 09:49:13;;;;;;;7.10;6.40;;;22.40;97.90;;;;;;5004537;28;20396;-43
2022/07/31 09:51:43;;;;;;;8.93;7.20;;;22.30;98.60;;;;;;5004446;28;20042;-38
2022/07/31 09:54:22;;;;;;;8.48;7.68;;;22.20;98.50;;;;;;5004789;28;20800;-41
2022/07/31 09:56:48;;;;;;;10.35;7.80;;;22.20;99.20;;;;;;5004596;28;20076;-41
2022/07/31 09:59:15;;;;;;;9.63;7.90;;;22.20;99.00;;;;;;5004076;28;20046;-39
2022/07/31 10:01:45;;;;;;;12.27;8.00;;;22.20;99.90;;;;;;5004444;28;20073;-39
2022/07/31 10:04:12;;;;;;;6.72;4.70;;;22.10;99.90;;;;;;5004581;28;20116;-39
2022/07/31 10:06:39;;;;;;;8.55;7.28;;;22.10;99.90;;;;;;5004834;28;20085;-40
2022/07/31 10:09:05;;;;;;;7.47;5.80;;;22.20;99.90;;;;;;5005483;28;20057;-38
2022/07/31 10:11:31;;;;;;;11.90;8.20;;;22.10;99.90;;;;;;5005120;28;20052;-39
2022/07/31 10:14:01;;;;;;;9.30;7.50;;;22.10;99.90;;;;;;5005369;28;20054;-40
2022/07/31 10:16:34;;;;;;;8.98;8.05;;;22.10;99.90;;;;;;5003662;28;20668;-38
2022/07/31 10:19:10;;;;;;;11.20;8.82;;;22.00;99.90;;;;;;4985663;28;20488;-39
2022/07/31 10:21:41;;;;;;;10.88;9.10;;;21.90;99.90;;;;;;5004420;28;20065;-42
2022/07/31 10:24:08;;;;;;;11.25;8.25;;;21.80;99.90;;;;;;5004528;28;20041;-40
2022/07/31 10:26:34;;;;;;;10.18;8.05;;;21.70;99.90;;;;;;5004146;28;20049;-40
2022/07/31 10:29:01;;;;;;;10.35;7.60;;;21.70;99.90;;;;;;5004555;28;20095;-42
2022/07/31 10:31:27;;;;;;;9.43;5.93;;;21.70;99.90;;;;;;5004460;28;20999;-40
2022/07/31 10:33:54;;;;;;;9.93;7.90;;;21.70;99.90;;;;;;5005231;28;20049;-39
2022/07/31 10:36:34;;;;;;;7.88;7.07;;;21.70;99.90;;;;;;5004968;28;20188;-37
2022/07/31 10:39:35;;;;;;;9.13;6.57;;;21.70;99.90;;;;;;5005508;28;20084;-38
2022/07/31 10:42:28;;;;;;;11.35;8.63;;;21.80;99.90;;;;;;5003073;28;20065;-39
2022/07/31 10:45:06;;;;;;;9.13;8.23;;;22.10;99.90;;;;;;5006277;28;20440;-39
2022/07/31 10:47:32;;;;;;;9.80;6.25;;;22.20;99.90;;;;;;5008862;28;20835;-41
2022/07/31 10:49:57;;;;;;;11.32;7.65;;;22.20;99.90;;;;;;5009113;28;20049;-40
2022/07/31 10:52:32;;;;;;;8.70;7.47;;;22.20;99.90;;;;;;5008326;28;20119;-40
2022/07/31 10:55:00;;;;;;;8.80;7.97;;;22.20;99.90;;;;;;5007882;28;20045;-39
2022/07/31 10:57:31;;;;;;;9.45;8.45;;;22.20;99.90;;;;;;5008291;28;20041;-39
2022/07/31 11:00:19;;;;;;;12.57;8.80;;;22.20;99.90;;;;;;5009176;28;20041;-39
2022/07/31 11:02:46;;;;;;;11.43;8.57;;;22.30;99.90;;;;;;5008943;28;20084;-39
2022/07/31 11:05:16;;;;;;;10.13;8.57;;;22.30;99.90;;;;;;5008934;28;20085;-40
2022/07/31 11:07:44;;;;;;;10.00;9.10;;;22.30;99.90;;;;;;5008762;28;20037;-40
2022/07/31 11:10:20;;;;;;;10.00;8.93;;;22.30;99.90;;;;;;5008900;28;20050;-40
2022/07/31 11:13:05;;;;;;;8.45;7.15;;;22.30;99.90;;;;;;5008324;28;20100;-39
2022/07/31 11:15:31;;;;;;;8.45;7.60;;;22.30;99.90;;;;;;5007983;28;20542;-39
2022/07/31 11:17:57;;;;;;;13.05;8.88;;;22.20;99.90;;;;;;5008448;28;20045;-40
2022/07/31 11:20:28;;;;;;;11.32;8.32;;;22.10;99.90;;;;;;5008076;28;20484;-39
2022/07/31 11:23:03;;;;;;;8.82;7.95;;;22.00;99.90;;;;;;5007954;28;20049;-39
2022/07/31 11:25:32;;;;;;;8.60;7.60;;;21.80;99.90;;;;;;5008204;28;20443;-39
2022/07/31 11:28:23;;;;;;;10.43;8.40;;;21.70;99.90;;;;;;5008267;28;20848;-40
2022/07/31 11:31:00;;;;;;;10.45;8.85;;;21.70;99.90;;;;;;5008013;28;20777;-39
2022/07/31 11:33:40;;;;;;;10.05;8.95;;;21.60;99.90;;;;;;5007833;28;20046;-39
2022/07/31 11:36:23;;;;;;;10.75;9.73;;;21.50;99.90;;;;;;5007992;28;20046;-40
2022/07/31 11:38:52;;;;;;;16.10;11.30;;;21.40;99.90;;;;;;5007626;28;20463;-39
2022/07/31 11:41:20;;;;;;;13.07;11.68;;;21.30;99.90;;;;;;5008062;28;20048;-40
2022/07/31 11:43:51;;;;;;;12.60;10.93;;;21.20;99.90;;;;;;5007625;28;20046;-39
2022/07/31 11:46:27;;;;;;;14.15;12.70;;;21.20;99.90;;;;;;5008005;28;20049;-40
2022/07/31 11:48:54;;;;;;;13.23;11.98;;;21.20;99.90;;;;;;5005699;28;20452;-40
2022/07/31 11:51:20;;;;;;;13.32;11.85;;;21.10;99.90;;;;;;5007878;28;20077;-39
2022/07/31 11:53:47;;;;;;;13.48;12.07;;;21.10;99.90;;;;;;5007702;28;20037;-40
2022/07/31 11:56:16;;;;;;;14.50;13.00;;;21.00;99.90;;;;;;5007828;28;20049;-40
2022/07/31 11:58:50;;;;;;;14.52;12.40;;;20.90;99.90;;;;;;5007959;28;20052;-39
2022/07/31 12:01:17;;;;;;;14.32;12.43;;;20.70;99.90;;;;;;5007797;28;20038;-39
2022/07/31 12:03:44;;;;;;;14.50;13.10;;;20.70;99.90;;;;;;5007872;28;20042;-40
2022/07/31 12:06:11;;;;;;;12.15;10.90;;;20.60;99.90;;;;;;5006950;28;20491;-39
2022/07/31 12:08:37;;;;;;;18.52;14.35;;;20.60;99.90;;;;;;5007540;28;20127;-40
2022/07/31 12:11:06;;;;;;;15.65;13.90;;;20.40;99.90;;;;;;5007666;28;20049;-39
2022/07/31 12:13:32;;;;;;;15.38;13.80;;;20.30;99.90;;;;;;5007257;28;20087;-39
2022/07/31 12:15:58;;;;;;;17.65;15.88;;;20.30;99.90;;;;;;5007349;28;20056;-39
2022/07/31 12:18:25;;;;;;;19.95;16.75;;;20.20;99.90;;;;;;5007309;28;20049;-39
2022/07/31 12:20:53;;;;;;;19.63;16.13;;;20.10;99.90;;;;;;5007121;28;20061;-39
2022/07/31 12:23:18;;;;;;;19.33;17.33;;;20.00;99.90;;;;;;5007696;28;20872;-39
2022/07/31 12:25:45;;;;;;;19.15;16.88;;;19.90;99.90;;;;;;5007486;28;20050;-39
2022/07/31 12:28:13;;;;;;;24.35;19.80;;;19.80;99.90;;;;;;5008121;28;20054;-39
2022/07/31 12:30:39;;;;;;;19.55;17.50;;;19.60;99.90;;;;;;5007242;28;20084;-39
2022/07/31 12:33:06;;;;;;;21.00;18.80;;;19.50;99.90;;;;;;5007283;28;20041;-40
2022/07/31 12:35:41;;;;;;;21.42;18.10;;;19.50;99.90;;;;;;5007308;28;20042;-39
2022/07/31 12:38:07;;;;;;;18.60;16.33;;;19.50;99.90;;;;;;5007571;28;20038;-39
2022/07/31 12:40:33;;;;;;;18.58;15.27;;;19.40;99.90;;;;;;5007208;28;20038;-39
2022/07/31 12:42:59;;;;;;;28.13;21.45;;;19.40;99.90;;;;;;5008237;28;20373;-39
2022/07/31 12:45:36;;;;;;;18.10;16.23;;;19.30;99.90;;;;;;5007332;28;20045;-39
2022/07/31 12:48:03;;;;;;;9.77;8.05;;;19.30;99.90;;;;;;5007708;28;20452;-39